LPPD Airport Information

Runway Information
Runway 12 Length 8192 ft width 148 ft
Elevation 259 ft Threshold 0 ft Heading 112
Runway 30 Length 8192 ft Width 148 ft
Elevation 187 ft Threshold 787 ft Heading 292
Airport Frequencies
Type APP Name APP Frequency 119.4 MHZ
Type TWR Name TWR Frequency 118.3 MHZ
Airport Navaids
Type NDB Name Ponta Delgada Frequency 371 KHZ
Type NDB Name Ponta Delgada Frequency 351 KHZ
Type VORTAC Name Sao Miguel Frequency 114500 KHZ
Airport Weather Information & NOTAM
ADDS - METARS form results

(0851 UTC 19 September 2018)
Data provider http://aviationweather.gov/metar/data/
 
METAR text: LPPD 190830Z VRB02KT 9999 FEW020 19/17 Q1021
Conditions at: LPPD (PONTA DELGADA/NO, PT) observed 0830 UTC 19 September 2018
Temperature: 19.0°C (66°F)
Dewpoint: 17.0°C (63°F) [RH = 88%]
Pressure (altimeter): 30.15 inches Hg (1021.0 mb)
Winds: variable direction winds at 2 MPH (2 knots; 1.0 m/s)
Visibility: 6 or more miles (10+ km)
Ceiling: at least 12,000 feet AGL
Clouds: few clouds at 2000 feet AGL
Weather: no significant weather observed at this time

METAR text: LPPD 190800Z VRB02KT 9999 FEW020 19/16 Q1020
Conditions at: LPPD (PONTA DELGADA/NO, PT) observed 0800 UTC 19 September 2018
Temperature: 19.0°C (66°F)
Dewpoint: 16.0°C (61°F) [RH = 83%]
Pressure (altimeter): 30.12 inches Hg (1020.0 mb)
Winds: variable direction winds at 2 MPH (2 knots; 1.0 m/s)
Visibility: 6 or more miles (10+ km)
Ceiling: at least 12,000 feet AGL
Clouds: few clouds at 2000 feet AGL
Weather: no significant weather observed at this time

Forecast for: LPPD (PONTA DELGADA/NO, PT)
Text: TAF LPPD 190500Z 1906/2006 VRB05KT 9999 SCT020
Forecast period: 0600 UTC 19 September 2018 to 0600 UTC 20 September 2018
Forecast type: FROM: standard forecast or significant change
Winds: variable direction winds at 6 MPH (5 knots; 2.6 m/s)
Visibility: 6 or more miles 10+ km)
Ceiling: at least 12,000 feet AGL
Clouds: scattered clouds at 2000 feet AGL
Weather: no significant weather forecast for this period
Text: TEMPO 1910/1918 18008KT
Forecast period: 1000 to 1800 UTC 19 September 2018
Forecast type: TEMPORARY: The following changes expected for less than half the time period
Winds: from the S (180 degrees) at 9 MPH (8 knots; 4.1 m/s)
Visibility: missing
Ceiling: unknown
Clouds: missing
Weather: no significant weather forecast for this period